Updated20/04/2019 22:15 
 

GeoURL
free counters
Scottish Weather Network UK Weather Network Cumulus Top Weather Sites

Peebles Weather - Nearby METAR Reports

Raw Data, Raw Data Expanded

Ignore low humidity and Dew Point values. Something wrong with the sensor.
Daytime temperatures are in direct sunlight so may be higher than official air temperature values.
As with any other website, we log your IP address and browser type in the server logs for diagnostic reasons. Cookies are used to record visit time and gauges preferences. No personal information is stored or processed.

All times are in local time (GMT, or BST in summer) unless specified.

2019/04/20 20:50 EGPH 202050Z 20004KT 160V240 CAVOK 14/09 Q1026
10.9°C 0.0 mm 0.0 mm 0.0 mm 0.1 mph 0.7 mph 1009.3 hPa 77% X-Ray Solar Flare Level
Planetary K-Index
Planetary K-Index History
Station Warn Rain Snow Flood Wind Ltng Heat Cold Glob Moon Temp Rain 1h Rain Sat Rain 24h Wind 10m Gust Pressure Hum Proton Levels

0.259 m Waning Gibbous Cool F0-SE F: A: Kp:0 SSN:0

METAR Reports

 

EGPH - Edinburgh Airpor, United Kingdom
Distance from station: NNW 22mi, 36km
Updated: 20/04/2019 21:50
Clear
Clear
 Wind from SSW
Wind: SSW 5 mph , 7 km/h
Temperature: 14°C
Dew Point: 9°C
Humidity: 72%
Barometer: 1026 hPa
Summary: Clear
Visibility: greater than 7 miles , 10 km
2019/04/20 20:50 EGPH 202050Z 20004KT 160V240 CAVOK 14/09 Q1026
EGOM - Spadeadam, United Kingdom
Distance from station: SSE 49mi, 79km
Updated: 20/04/2019 21:50
Clear
Clear
 Wind from SW
Wind: SW 2 mph , 4 km/h
Temperature: 11°C
Dew Point: 4°C
Humidity: 62%
Barometer: 1027 hPa
Clouds: Clear
Visibility: 6 miles , 10 km
2019/04/20 20:50 EGOM 202050Z AUTO 23002KT 9999 NCD 11/04 Q1027
 
EGNC - Carlisle, United Kingdom
Distance from station: SSE 51mi, 82km
Updated: 12/10/2018 14:50
NOT Current
Light rain, Showers, Overcast
Light rain, Showers, Overcast
 Wind from S
Wind: S 21 mph , 33 km/h, Gust: 38 mph , 61 km/h
Temperature: 16°C
Dew Point: 14°C
Humidity: 88%
Barometer: 992 hPa
Summary: Light rain, Showers
Clouds: Overcast
Visibility: 3 miles , 5 km
Cloud details: Partly cloudy 305 m
Overcast 488 m
2018/10/12 13:50 EGNC 121350Z 18018G33KT 140V220 5000 -SHRA SCT010 OVC016 16/14 Q0992
EGPF - Glasgow Airport, United Kingdom
Distance from station: WNW 51mi, 82km
Updated: 20/04/2019 21:50
Clear
Clear
 Wind from WNW
Wind: WNW 5 mph , 7 km/h
Temperature: 12°C
Dew Point: 9°C
Humidity: 82%
Barometer: 1027 hPa
Clouds: Clear
Visibility: 4 miles , 7 km
2019/04/20 20:50 EGPF 202050Z AUTO 29004KT 7000 NCD 12/09 Q1027
 
EGQL - Leuchars Raf, United Kingdom
Distance from station: NNE 53mi, 85km
Updated: 20/04/2019 21:50
Haze, Few clouds
Haze, Few clouds
 Wind from calm
Wind: Calm
Temperature: 11°C
Dew Point: 8°C
Humidity: 82%
Barometer: 1026 hPa
Summary: Haze
Clouds: Few Clouds
Visibility: 6 miles , 9 km
Cloud details: Few Clouds 6096 m
2019/04/20 20:50 EGQL 202050Z 00000KT 9000 HZ FEW200 11/08 Q1026 BLU
EGPK - Prestwick(Civ/Na, United Kingdom
Distance from station: W 55mi, 89km
Updated: 20/04/2019 21:50
Few Clouds
Few Clouds
 Wind from calm
Wind: Calm
Temperature: 11°C
Dew Point: 8°C
Humidity: 82%
Barometer: 1027 hPa
Clouds: Few Clouds
Visibility: 4 miles , 7 km
Cloud details: Few Clouds 1372 m
2019/04/20 20:50 EGPK 202050Z 00000KT 7000 FEW045 11/08 Q1027
 
EGPN - Dundee/Riverside, United Kingdom
Distance from station: N 56mi, 90km
Updated: 20/04/2019 15:50
NOT Current
Clear
Clear
 Wind from calm
Wind: Calm
Temperature: 20°C
Dew Point: 10°C
Humidity: 53%
Barometer: 1028 hPa
Summary: Clear
Visibility: greater than 7 miles , 10 km
2019/04/20 14:50 EGPN 201450Z 00000KT CAVOK 20/10 Q1028
EGNT - Newcastle, United Kingdom
Distance from station: SE 72mi, 116km
Updated: 20/04/2019 21:50
Clear
Clear
 Wind from SW
Wind: SW 6 mph , 9 km/h
Temperature: 13°C
Dew Point: 6°C
Humidity: 63%
Barometer: 1027 hPa
Summary: Clear
Visibility: greater than 7 miles , 10 km
2019/04/20 20:50 EGNT 202050Z 22005KT CAVOK 13/06 Q1027
 
EGNV - Tees-Side, United Kingdom
Distance from station: SE 104mi, 168km
Updated: 20/04/2019 21:50
Clear
Clear
 Wind from SW
Wind: SW 6 mph , 9 km/h
Temperature: 12°C
Dew Point: 6°C
Humidity: 67%
Barometer: 1028 hPa
Summary: Clear
Visibility: greater than 7 miles , 10 km
2019/04/20 20:50 EGNV 202050Z 22005KT CAVOK 12/06 Q1028
EGPD - Aberdeen/Dyce, United Kingdom
Distance from station: NNE 114mi, 183km
Updated: 20/04/2019 21:50
Clear
Clear
 Wind from N
Wind: N 1 mph , 2 km/h
Temperature: 12°C
Dew Point: 8°C
Humidity: 77%
Barometer: 1026 hPa
Clouds: Clear
Visibility: 6 miles , 10 km
2019/04/20 20:50 EGPD 202050Z AUTO 01001KT 9999 NCD 12/08 Q1026
 
EGNS - Isle Of Man/Rona, United Kingdom
Distance from station: SSW 122mi, 197km
Updated: 20/04/2019 21:50
Clear
Clear
 Wind from NNE
Wind: NNE 5 mph , 7 km/h
Temperature: 13°C
Dew Point: 8°C
Humidity: 72%
Barometer: 1027 hPa
Summary: Clear
Visibility: greater than 7 miles , 10 km
2019/04/20 20:50 EGNS 202050Z 02004KT CAVOK 13/08 Q1027
EGAC - Belfast Harbour, United Kingdom
Distance from station: WSW 128mi, 206km
Updated: 20/04/2019 21:50
Haze, Clear
Haze, Clear
 Wind from varies
Wind: varies 1 mph , 2 km/h
Temperature: 11°C
Dew Point: 10°C
Humidity: 94%
Barometer: 1026 hPa
Summary: Haze
Clouds: Clear
Visibility: 2 miles , 4 km
2019/04/20 20:50 EGAC 202050Z AUTO VRB01KT 3700 HZ NCD 11/10 Q1026
 
EGPE - Inverness/Dalcro, United Kingdom
Distance from station: NNW 134mi, 215km
Updated: 20/04/2019 21:50
Light rain, Drizzle, Mostly cloudy
Light rain, Drizzle, Mostly cloudy
 Wind from varies
Wind: varies 3 mph , 6 km/h
Temperature: 9°C
Dew Point: 9°C
Humidity: 100%
Barometer: 1026 hPa
Summary: Light rain, Drizzle
Clouds: Mostly cloudy
Visibility: 1 mile , 2 km
Cloud details: Partly cloudy 30 m
Mostly cloudy 91 m
2019/04/20 20:50 EGPE 202050Z VRB03KT 1700 -RADZ SCT001 BKN003 09/09 Q1026
XHTML 1.1 | CSS